createdAt,value
2019-04-06T00:01:40.568Z,94.48
2019-04-06T00:04:47.779Z,93.61
2019-04-06T00:07:54.846Z,93.84
2019-04-06T00:11:01.802Z,90.37
2019-04-06T00:14:09.007Z,93.87
2019-04-06T00:17:15.894Z,96.19
2019-04-06T00:20:22.743Z,96.71
2019-04-06T00:23:29.640Z,90.69
2019-04-06T00:26:36.659Z,94.14
2019-04-06T00:29:44.985Z,93.76
2019-04-06T00:32:59.008Z,97.56
2019-04-06T00:36:06.019Z,92.70
2019-04-06T00:39:13.004Z,96.99
2019-04-06T00:42:19.974Z,89.75
2019-04-06T00:45:26.832Z,97.35
2019-04-06T00:48:33.739Z,93.32
2019-04-06T00:51:40.580Z,99.86
2019-04-06T00:54:48.152Z,91.83
2019-04-06T00:57:55.021Z,93.92
2019-04-06T01:01:01.904Z,97.18
2019-04-06T01:04:08.812Z,96.33
2019-04-06T01:07:15.832Z,92.00
2019-04-06T01:10:22.880Z,92.99
2019-04-06T01:13:29.835Z,97.62
2019-04-06T01:16:37.049Z,100.00
2019-04-06T01:19:46.578Z,100.00
2019-04-06T01:22:53.426Z,99.85
2019-04-06T01:26:07.071Z,95.51
2019-04-06T01:29:08.890Z,94.52
2019-04-06T01:32:15.769Z,97.87
2019-04-06T01:35:22.754Z,97.84
2019-04-06T01:38:29.754Z,95.66
2019-04-06T01:41:36.605Z,96.88
2019-04-06T01:44:44.948Z,98.17
2019-04-06T01:47:54.959Z,99.77
2019-04-06T01:51:01.844Z,98.74
2019-04-06T01:54:08.750Z,98.02
2019-04-06T01:57:15.733Z,98.06
2019-04-06T02:00:22.584Z,98.51
2019-04-06T02:03:29.539Z,99.00
2019-04-06T02:06:36.401Z,100.00
2019-04-06T02:09:43.856Z,100.00
2019-04-06T02:12:52.341Z,97.66
2019-04-06T02:15:59.486Z,97.98
2019-04-06T02:19:07.501Z,98.68
2019-04-06T02:22:14.405Z,100.00
2019-04-06T02:25:21.319Z,100.00
2019-04-06T02:28:28.240Z,100.00
2019-04-06T02:31:52.760Z,99.72
2019-04-06T02:35:15.117Z,99.48
2019-04-06T02:38:37.657Z,99.05
2019-04-06T02:42:09.841Z,98.85
2019-04-06T02:45:16.914Z,99.63
2019-04-06T02:48:23.971Z,100.00
2019-04-06T02:51:31.250Z,100.00
2019-04-06T02:54:38.154Z,100.00
2019-04-06T02:57:45.512Z,100.00
2019-04-06T03:00:55.173Z,98.96
2019-04-06T03:04:03.095Z,100.00
2019-04-06T03:07:10.489Z,99.22
2019-04-06T03:10:17.377Z,98.79
2019-04-06T03:13:24.263Z,99.96
2019-04-06T03:16:31.351Z,99.23
2019-04-06T03:19:39.361Z,97.44
2019-04-06T03:22:47.590Z,98.46
2019-04-06T03:25:54.464Z,97.09
2019-04-06T03:29:01.410Z,95.91
2019-04-06T03:32:08.437Z,95.90
2019-04-06T03:35:15.381Z,95.27
2019-04-06T03:38:22.342Z,96.87
2019-04-06T03:41:29.197Z,95.53
2019-04-06T03:44:36.077Z,96.44
2019-04-06T03:47:44.050Z,96.27
2019-04-06T03:50:52.562Z,94.16
2019-04-06T03:53:59.529Z,93.96
2019-04-06T03:57:15.069Z,94.23
2019-04-06T04:00:15.038Z,96.03
2019-04-06T04:03:21.924Z,94.11
2019-04-06T04:06:28.777Z,94.64
2019-04-06T04:09:35.643Z,97.53
2019-04-06T04:12:43.090Z,95.41
2019-04-06T04:15:50.144Z,96.35
2019-04-06T04:18:56.991Z,96.89
2019-04-06T04:22:05.023Z,97.04
2019-04-06T04:25:11.883Z,95.69
2019-04-06T04:28:18.779Z,95.17
2019-04-06T04:31:26.600Z,96.46
2019-04-06T04:34:33.478Z,97.59
2019-04-06T04:37:40.327Z,99.29
2019-04-06T04:40:49.993Z,97.37
2019-04-06T04:43:57.418Z,98.21
2019-04-06T04:47:04.325Z,95.93
2019-04-06T04:50:11.460Z,90.36
2019-04-06T04:53:18.550Z,95.16
2019-04-06T04:56:25.480Z,99.54
2019-04-06T04:59:32.357Z,96.45
2019-04-06T05:02:39.202Z,98.83
2019-04-06T05:05:47.691Z,97.16
2019-04-06T05:08:55.857Z,98.10
2019-04-06T05:12:03.302Z,97.96
2019-04-06T05:15:13.110Z,96.43
2019-04-06T05:18:19.998Z,95.19
2019-04-06T05:21:26.883Z,96.28
2019-04-06T05:24:35.237Z,96.56
2019-04-06T05:27:51.784Z,96.15
2019-04-06T05:30:58.011Z,98.22
2019-04-06T05:34:04.858Z,93.80
2019-04-06T05:37:11.765Z,94.59
2019-04-06T05:40:21.582Z,95.52
2019-04-06T05:43:28.495Z,94.86
2019-04-06T05:46:35.451Z,91.51
2019-04-06T05:49:42.414Z,88.23
2019-04-06T05:52:49.264Z,89.89
2019-04-06T05:55:56.464Z,95.24
2019-04-06T05:59:03.334Z,93.88
2019-04-06T06:02:10.695Z,93.50
2019-04-06T06:05:17.832Z,97.36
2019-04-06T06:08:24.731Z,96.24
2019-04-06T06:11:34.111Z,96.27
2019-04-06T06:14:43.333Z,95.45
2019-04-06T06:17:50.241Z,95.76
2019-04-06T06:20:57.146Z,95.51
2019-04-06T06:24:03.999Z,93.63
2019-04-06T06:27:11.359Z,94.08
2019-04-06T06:30:18.202Z,91.75
2019-04-06T06:33:25.442Z,90.54
2019-04-06T06:36:33.372Z,89.55
2019-04-06T06:39:40.339Z,88.77
2019-04-06T06:42:48.352Z,88.18
2019-04-06T06:45:55.269Z,88.60
2019-04-06T06:49:02.333Z,90.27
2019-04-06T06:52:09.304Z,89.74
2019-04-06T06:55:16.195Z,87.92
2019-04-06T06:58:25.618Z,86.21
2019-04-06T07:01:31.740Z,86.97
2019-04-06T07:04:38.613Z,85.80
2019-04-06T07:07:49.800Z,87.86
2019-04-06T07:10:56.809Z,85.39
2019-04-06T07:14:03.748Z,85.07
2019-04-06T07:17:10.656Z,84.42
2019-04-06T07:20:17.589Z,84.67
2019-04-06T07:23:24.494Z,83.15
2019-04-06T07:26:31.474Z,82.80
2019-04-06T07:29:38.668Z,83.38
2019-04-06T07:32:48.486Z,84.58
2019-04-06T07:35:55.367Z,83.33
2019-04-06T07:39:02.256Z,82.70
2019-04-06T07:42:09.351Z,80.80
2019-04-06T07:45:16.441Z,82.26
2019-04-06T07:48:23.359Z,81.77
2019-04-06T07:51:30.440Z,80.63
2019-04-06T07:54:37.440Z,81.85
2019-04-06T07:57:47.538Z,80.58
2019-04-06T08:00:55.527Z,79.23
2019-04-06T08:04:02.427Z,78.57
2019-04-06T08:07:09.359Z,77.23
2019-04-06T08:10:17.277Z,73.61
2019-04-06T08:13:24.230Z,71.82
2019-04-06T08:16:31.093Z,73.12
2019-04-06T08:19:38.021Z,72.19
2019-04-06T08:22:46.278Z,72.82
2019-04-06T08:25:53.514Z,71.34
2019-04-06T08:29:02.461Z,69.50
2019-04-06T08:32:09.367Z,70.41
2019-04-06T08:35:25.124Z,69.50
2019-04-06T08:38:25.095Z,69.49
2019-04-06T08:41:31.967Z,69.46
2019-04-06T08:44:39.137Z,68.49
2019-04-06T08:47:48.357Z,68.44
2019-04-06T08:50:55.235Z,68.60
2019-04-06T08:54:02.205Z,66.68
2019-04-06T08:57:09.393Z,66.94
2019-04-06T09:00:16.706Z,67.48
2019-04-06T09:03:23.786Z,66.10
2019-04-06T09:06:31.015Z,65.62
2019-04-06T09:09:37.903Z,65.01
2019-04-06T09:12:46.893Z,64.21
2019-04-06T09:15:53.905Z,63.89
2019-04-06T09:19:01.027Z,63.86
2019-04-06T09:22:08.052Z,62.82
2019-04-06T09:25:15.003Z,63.37
2019-04-06T09:28:23.115Z,62.01
2019-04-06T09:31:30.291Z,63.64
2019-04-06T09:34:37.692Z,61.79
2019-04-06T09:37:44.740Z,61.07
2019-04-06T09:40:52.151Z,60.51
2019-04-06T09:43:59.194Z,59.92
2019-04-06T09:47:12.616Z,58.97
2019-04-06T09:50:35.650Z,57.60
2019-04-06T09:54:06.180Z,57.38
2019-04-06T09:57:27.040Z,56.45
2019-04-06T10:00:52.854Z,56.36
2019-04-06T10:04:18.952Z,56.06
2019-04-06T10:07:56.834Z,54.21
2019-04-06T10:11:34.836Z,54.52
2019-04-06T10:14:58.983Z,56.11
2019-04-06T10:18:27.736Z,50.97
2019-04-06T10:21:53.617Z,55.15
2019-04-06T10:25:37.717Z,54.71
2019-04-06T10:28:56.122Z,54.96
2019-04-06T10:32:26.002Z,52.79
2019-04-06T10:36:02.005Z,53.74
2019-04-06T10:39:30.818Z,53.65
2019-04-06T10:42:58.070Z,52.13
2019-04-06T10:46:12.613Z,51.05
2019-04-06T10:49:35.735Z,55.03
2019-04-06T10:52:59.563Z,52.36
2019-04-06T10:56:28.535Z,52.12
2019-04-06T10:59:44.005Z,52.08
2019-04-06T11:03:05.470Z,49.48
2019-04-06T11:06:23.925Z,52.84
2019-04-06T11:09:42.320Z,51.13
2019-04-06T11:13:26.656Z,49.60
2019-04-06T11:16:51.101Z,50.67
2019-04-06T11:20:15.980Z,49.45
2019-04-06T11:23:47.629Z,50.21
2019-04-06T11:27:13.407Z,50.07
2019-04-06T11:30:48.545Z,49.77
2019-04-06T11:34:26.823Z,49.70
2019-04-06T11:37:43.441Z,49.23
2019-04-06T11:41:04.968Z,48.65
2019-04-06T11:44:18.877Z,49.91
2019-04-06T11:47:54.156Z,49.01
2019-04-06T11:51:18.689Z,47.94
2019-04-06T11:54:47.246Z,47.84
2019-04-06T11:58:09.897Z,50.43
2019-04-06T12:01:26.289Z,49.66
2019-04-06T12:04:39.878Z,50.63
2019-04-06T12:08:06.130Z,49.93
2019-04-06T12:11:35.227Z,50.11
2019-04-06T12:14:58.909Z,48.17
2019-04-06T12:18:39.981Z,49.44
2019-04-06T12:22:08.513Z,49.96
2019-04-06T12:25:33.098Z,50.29
2019-04-06T12:29:00.531Z,51.61
2019-04-06T12:32:18.013Z,52.51
2019-04-06T12:35:53.710Z,51.94
2019-04-06T12:39:09.156Z,53.78
2019-04-06T12:42:41.624Z,53.71
2019-04-06T12:45:55.894Z,54.10
2019-04-06T12:49:13.090Z,53.48
2019-04-06T12:52:44.833Z,53.78
2019-04-06T12:56:10.586Z,53.70
2019-04-06T12:59:24.973Z,55.12
2019-04-06T13:03:03.809Z,54.54
2019-04-06T13:06:29.859Z,54.73
2019-04-06T13:09:50.012Z,55.44
2019-04-06T13:13:09.424Z,52.48
2019-04-06T13:16:35.272Z,53.65
2019-04-06T13:19:51.759Z,54.57
2019-04-06T13:23:26.772Z,54.83
2019-04-06T13:26:55.424Z,55.03
2019-04-06T13:30:20.052Z,53.00
2019-04-06T13:33:32.216Z,53.11
2019-04-06T13:36:55.102Z,54.52
2019-04-06T13:40:10.731Z,54.06
2019-04-06T13:43:43.866Z,53.54
2019-04-06T13:47:13.475Z,53.00
2019-04-06T13:50:43.221Z,54.91
2019-04-06T13:54:09.130Z,57.21
2019-04-06T13:57:22.317Z,56.86
2019-04-06T14:00:54.131Z,60.29
2019-04-06T14:04:28.794Z,63.78
2019-04-06T14:08:06.786Z,61.01
2019-04-06T14:11:45.191Z,58.50
2019-04-06T14:15:06.239Z,59.88
2019-04-06T14:18:41.950Z,60.69
2019-04-06T14:22:06.923Z,61.43
2019-04-06T14:25:31.697Z,56.73
2019-04-06T14:29:15.351Z,59.38
2019-04-06T14:33:01.225Z,52.93
2019-04-06T14:36:23.528Z,52.89
2019-04-06T14:39:49.587Z,52.32
2019-04-06T14:43:14.719Z,51.00
2019-04-06T14:46:37.633Z,48.15
2019-04-06T14:50:07.174Z,46.48
2019-04-06T14:53:39.439Z,44.92
2019-04-06T14:57:09.304Z,46.56
2019-04-06T15:00:38.357Z,47.38
2019-04-06T15:04:16.800Z,49.17
2019-04-06T15:07:48.562Z,49.09
2019-04-06T15:11:18.100Z,51.19
2019-04-06T15:14:33.590Z,51.22
2019-04-06T15:18:02.241Z,51.65
2019-04-06T15:21:17.934Z,52.78
2019-04-06T15:24:37.457Z,50.81
2019-04-06T15:28:02.874Z,50.91
2019-04-06T15:31:31.703Z,49.59
2019-04-06T15:34:58.001Z,49.47
2019-04-06T15:38:22.804Z,49.95
2019-04-06T15:41:54.766Z,50.01
2019-04-06T15:45:14.184Z,50.14
2019-04-06T15:48:40.100Z,50.81
2019-04-06T15:52:11.472Z,51.67
2019-04-06T15:55:22.528Z,52.05
2019-04-06T15:58:42.783Z,52.57
2019-04-06T16:02:08.559Z,54.62
2019-04-06T16:05:33.139Z,52.71
2019-04-06T16:08:45.962Z,52.96
2019-04-06T16:12:14.815Z,51.98
2019-04-06T16:15:40.742Z,53.14
2019-04-06T16:18:54.876Z,53.50
2019-04-06T16:22:19.678Z,55.21
2019-04-06T16:25:44.438Z,55.40
2019-04-06T16:29:16.104Z,55.10
2019-04-06T16:32:40.597Z,55.94
2019-04-06T16:36:11.386Z,56.55
2019-04-06T16:39:53.147Z,56.20
2019-04-06T16:43:28.247Z,56.73
2019-04-06T16:46:54.531Z,56.30
2019-04-06T16:50:18.097Z,56.01
2019-04-06T16:53:53.419Z,55.68
2019-04-06T16:57:25.042Z,55.92
2019-04-06T17:00:41.972Z,56.75
2019-04-06T17:04:06.897Z,56.10
2019-04-06T17:07:39.057Z,57.17
2019-04-06T17:10:52.987Z,56.81
2019-04-06T17:14:27.876Z,57.39
2019-04-06T17:17:52.626Z,58.55
2019-04-06T17:21:18.500Z,58.92
2019-04-06T17:24:31.716Z,62.73
2019-04-06T17:27:52.602Z,64.74
2019-04-06T17:31:05.929Z,63.49
2019-04-06T17:34:33.642Z,64.66
2019-04-06T17:38:03.469Z,65.15
2019-04-06T17:41:25.349Z,65.17
2019-04-06T17:45:00.236Z,65.70
2019-04-06T17:48:18.460Z,65.90
2019-04-06T17:51:48.549Z,66.86
2019-04-06T17:55:13.435Z,67.72
2019-04-06T17:58:39.601Z,69.48
2019-04-06T18:02:08.713Z,68.08
2019-04-06T18:05:29.088Z,69.13
2019-04-06T18:08:46.329Z,69.62
2019-04-06T18:12:01.926Z,68.10
2019-04-06T18:15:09.117Z,68.59
2019-04-06T18:18:16.538Z,68.23
2019-04-06T18:21:23.601Z,67.14
2019-04-06T18:24:41.065Z,67.58
2019-04-06T18:27:53.975Z,65.43
2019-04-06T18:31:20.222Z,63.87
2019-04-06T18:34:27.390Z,64.47
2019-04-06T18:37:45.901Z,65.71
2019-04-06T18:40:52.986Z,64.15
2019-04-06T18:44:01.502Z,63.30
2019-04-06T18:47:08.589Z,63.92
2019-04-06T18:50:16.190Z,65.12
2019-04-06T18:53:23.093Z,64.66
2019-04-06T18:56:29.977Z,65.27
2019-04-06T18:59:40.302Z,64.75
2019-04-06T19:02:49.181Z,65.63
2019-04-06T19:05:56.037Z,65.24
2019-04-06T19:09:02.970Z,65.80
2019-04-06T19:12:11.250Z,64.50
2019-04-06T19:15:19.181Z,64.99
2019-04-06T19:18:26.074Z,64.82
2019-04-06T19:21:33.151Z,65.80
2019-04-06T19:24:40.625Z,65.57
2019-04-06T19:27:47.490Z,65.74
2019-04-06T19:30:55.234Z,67.15
2019-04-06T19:34:02.370Z,67.07
2019-04-06T19:37:10.344Z,67.78
2019-04-06T19:40:17.793Z,68.46
2019-04-06T19:43:25.110Z,70.95
2019-04-06T19:46:33.970Z,70.54
2019-04-06T19:49:41.264Z,72.35
2019-04-06T19:52:49.581Z,74.93
2019-04-06T19:55:56.491Z,73.97
2019-04-06T19:59:03.380Z,72.13
2019-04-06T20:02:10.368Z,71.46
2019-04-06T20:05:17.222Z,70.36
2019-04-06T20:08:24.110Z,72.43
2019-04-06T20:11:31.011Z,71.61
2019-04-06T20:14:41.983Z,71.06
2019-04-06T20:17:48.852Z,71.48
2019-04-06T20:20:55.751Z,72.29
2019-04-06T20:24:02.614Z,75.65
2019-04-06T20:27:09.693Z,73.80
2019-04-06T20:30:17.253Z,73.85
2019-04-06T20:33:24.704Z,76.73
2019-04-06T20:36:31.697Z,76.93
2019-04-06T20:39:38.664Z,76.13
2019-04-06T20:42:45.980Z,75.70
2019-04-06T20:45:52.865Z,77.18
2019-04-06T20:49:00.119Z,78.18
2019-04-06T20:52:07.181Z,77.64
2019-04-06T20:55:15.450Z,76.31
2019-04-06T20:58:22.362Z,76.03
2019-04-06T21:01:31.122Z,76.80
2019-04-06T21:04:42.852Z,77.34
2019-04-06T21:07:49.725Z,76.59
2019-04-06T21:10:56.790Z,76.28
2019-04-06T21:14:03.626Z,77.17
2019-04-06T21:17:10.639Z,77.68
2019-04-06T21:20:17.498Z,76.96
2019-04-06T21:23:24.380Z,76.57
2019-04-06T21:26:34.170Z,78.17
2019-04-06T21:29:44.213Z,80.97
2019-04-06T21:32:51.465Z,80.31
2019-04-06T21:35:58.402Z,82.05
2019-04-06T21:39:08.326Z,82.53
2019-04-06T21:42:15.372Z,83.20
2019-04-06T21:45:23.423Z,81.50
2019-04-06T21:48:30.462Z,78.84
2019-04-06T21:51:37.885Z,77.01
2019-04-06T21:54:45.359Z,79.22
2019-04-06T21:57:53.185Z,81.16
2019-04-06T22:01:00.420Z,83.20
2019-04-06T22:04:08.186Z,79.28
2019-04-06T22:07:16.512Z,81.18
2019-04-06T22:10:23.387Z,78.68
2019-04-06T22:13:30.272Z,80.15
2019-04-06T22:16:37.137Z,80.25
2019-04-06T22:19:44.032Z,80.37
2019-04-06T22:22:50.911Z,80.41
2019-04-06T22:25:57.845Z,82.83
2019-04-06T22:29:04.833Z,79.59
2019-04-06T22:32:11.822Z,80.41
2019-04-06T22:35:19.189Z,82.26
2019-04-06T22:38:26.127Z,80.16
2019-04-06T22:41:32.963Z,78.39
2019-04-06T22:44:40.059Z,77.41
2019-04-06T22:47:47.292Z,76.50
2019-04-06T22:50:54.220Z,76.72
2019-04-06T22:54:01.279Z,77.50
2019-04-06T22:57:11.004Z,78.17
2019-04-06T23:00:28.190Z,77.11
2019-04-06T23:03:52.814Z,78.16
2019-04-06T23:07:06.371Z,78.81
2019-04-06T23:10:13.486Z,80.83
2019-04-06T23:13:20.361Z,78.37
2019-04-06T23:16:27.628Z,79.50
2019-04-06T23:19:34.549Z,78.92
2019-04-06T23:22:41.407Z,78.22
2019-04-06T23:25:48.256Z,80.40
2019-04-06T23:28:55.137Z,77.93
2019-04-06T23:32:02.029Z,78.22
2019-04-06T23:35:12.900Z,76.77
2019-04-06T23:38:20.160Z,77.33
2019-04-06T23:41:27.670Z,78.78
2019-04-06T23:44:34.650Z,78.59
2019-04-06T23:47:41.717Z,79.52
2019-04-06T23:50:48.629Z,80.02
2019-04-06T23:53:55.484Z,79.64
2019-04-06T23:57:02.603Z,76.84
